createdAt,value
2022-12-01T00:01:06.350Z,71.30
2022-12-01T00:03:33.623Z,71.24
2022-12-01T00:06:10.133Z,71.01
2022-12-01T00:08:37.190Z,70.62
2022-12-01T00:11:10.488Z,71.14
2022-12-01T00:13:37.746Z,70.91
2022-12-01T00:16:17.377Z,71.12
2022-12-01T00:18:44.475Z,70.81
2022-12-01T00:21:15.461Z,71.04
2022-12-01T00:23:50.597Z,71.37
2022-12-01T00:26:18.483Z,70.93
2022-12-01T00:28:49.965Z,71.11
2022-12-01T00:31:16.323Z,70.71
2022-12-01T00:33:42.878Z,71.40
2022-12-01T00:36:09.724Z,71.33
2022-12-01T00:38:37.253Z,71.19
2022-12-01T00:41:04.412Z,71.36
2022-12-01T00:43:31.030Z,71.34
2022-12-01T00:45:57.537Z,71.13
2022-12-01T00:48:24.445Z,71.01
2022-12-01T00:50:54.821Z,70.44
2022-12-01T00:53:21.645Z,70.56
2022-12-01T00:55:48.216Z,70.86
2022-12-01T00:58:14.803Z,70.66
2022-12-01T01:00:42.921Z,71.12
2022-12-01T01:03:10.782Z,70.31
2022-12-01T01:05:39.172Z,70.69
2022-12-01T01:08:10.656Z,71.12
2022-12-01T01:10:40.529Z,71.39
2022-12-01T01:13:07.053Z,71.05
2022-12-01T01:15:34.037Z,71.39
2022-12-01T01:18:00.990Z,70.53
2022-12-01T01:20:27.544Z,70.84
2022-12-01T01:22:53.999Z,70.39
2022-12-01T01:25:20.504Z,70.13
2022-12-01T01:27:46.957Z,69.92
2022-12-01T01:30:13.769Z,69.96
2022-12-01T01:32:40.299Z,69.86
2022-12-01T01:35:07.361Z,69.78
2022-12-01T01:37:33.896Z,70.24
2022-12-01T01:40:00.315Z,71.08
2022-12-01T01:42:26.798Z,71.03
2022-12-01T01:44:56.271Z,71.90
2022-12-01T01:47:28.323Z,71.73
2022-12-01T01:49:57.465Z,71.53
2022-12-01T01:52:24.622Z,72.14
2022-12-01T01:54:55.249Z,72.71
2022-12-01T01:57:29.109Z,71.85
2022-12-01T02:00:01.516Z,72.05
2022-12-01T02:02:28.083Z,71.68
2022-12-01T02:08:28.676Z,71.73
2022-12-01T02:11:00.814Z,71.66
2022-12-01T02:13:44.543Z,71.21
2022-12-01T02:16:52.538Z,71.30
2022-12-01T02:19:52.247Z,72.23
2022-12-01T02:22:30.352Z,72.69
2022-12-01T02:25:19.877Z,72.11
2022-12-01T02:28:02.944Z,72.11
2022-12-01T02:30:35.318Z,73.16
2022-12-01T02:33:11.916Z,73.39
2022-12-01T02:35:50.394Z,74.16
2022-12-01T02:38:29.673Z,73.25
2022-12-01T02:41:16.678Z,73.52
2022-12-01T02:44:20.170Z,73.22
2022-12-01T02:47:12.012Z,73.50
2022-12-01T02:49:50.635Z,73.31
2022-12-01T02:52:18.928Z,73.77
2022-12-01T02:54:47.079Z,73.47
2022-12-01T02:57:15.157Z,73.09
2022-12-01T02:59:44.582Z,74.06
2022-12-01T03:02:19.263Z,73.80
2022-12-01T03:05:26.613Z,74.03
2022-12-01T03:08:29.693Z,73.34
2022-12-01T03:10:58.390Z,73.06
2022-12-01T03:13:51.698Z,73.56
2022-12-01T03:16:26.298Z,73.78
2022-12-01T03:19:00.687Z,73.72
2022-12-01T03:21:33.648Z,73.41
2022-12-01T03:24:08.042Z,73.51
2022-12-01T03:26:37.584Z,73.87
2022-12-01T03:29:09.699Z,73.36
2022-12-01T03:31:43.366Z,72.85
2022-12-01T03:34:18.049Z,72.43
2022-12-01T03:36:50.147Z,72.74
2022-12-01T03:39:25.357Z,71.89
2022-12-01T03:42:01.127Z,72.73
2022-12-01T03:44:43.312Z,72.69
2022-12-01T03:47:14.682Z,72.53
2022-12-01T03:49:41.708Z,72.85
2022-12-01T03:52:22.437Z,72.63
2022-12-01T03:55:05.021Z,73.04
2022-12-01T03:58:09.603Z,73.12
2022-12-01T04:00:36.829Z,73.08
2022-12-01T04:03:04.817Z,73.30
2022-12-01T04:05:33.372Z,73.53
2022-12-01T04:08:00.209Z,73.57
2022-12-01T04:10:26.797Z,73.31
2022-12-01T04:12:58.987Z,74.09
2022-12-01T04:15:27.133Z,74.38
2022-12-01T04:17:54.114Z,73.68
2022-12-01T04:20:20.961Z,73.23
2022-12-01T04:22:48.606Z,73.22
2022-12-01T04:25:15.151Z,73.28
2022-12-01T04:27:41.863Z,73.21
2022-12-01T04:30:09.116Z,72.78
2022-12-01T04:32:44.380Z,73.12
2022-12-01T04:35:12.532Z,73.73
2022-12-01T04:37:39.682Z,73.21
2022-12-01T04:40:07.003Z,73.61
2022-12-01T04:42:33.534Z,72.90
2022-12-01T04:44:59.995Z,72.61
2022-12-01T04:47:26.455Z,72.39
2022-12-01T04:49:53.166Z,72.33
2022-12-01T04:52:19.600Z,73.31
2022-12-01T04:54:46.050Z,73.60
2022-12-01T04:57:12.556Z,74.20
2022-12-01T04:59:39.183Z,74.15
2022-12-01T05:02:05.788Z,74.10
2022-12-01T05:04:33.965Z,74.37
2022-12-01T05:07:00.500Z,74.97
2022-12-01T05:09:26.996Z,74.75
2022-12-01T05:11:53.615Z,73.37
2022-12-01T05:14:20.051Z,73.98
2022-12-01T05:16:46.904Z,73.44
2022-12-01T05:19:31.739Z,73.01
2022-12-01T05:21:58.212Z,73.40
2022-12-01T05:24:24.675Z,73.00
2022-12-01T05:26:51.117Z,73.07
2022-12-01T05:29:17.669Z,73.21
2022-12-01T05:31:46.191Z,73.80
2022-12-01T05:34:12.693Z,73.71
2022-12-01T05:36:39.105Z,74.00
2022-12-01T05:39:05.656Z,74.35
2022-12-01T05:41:32.222Z,74.53
2022-12-01T05:43:58.800Z,74.75
2022-12-01T05:46:25.359Z,73.74
2022-12-01T05:48:51.922Z,73.62
2022-12-01T05:51:18.420Z,73.83
2022-12-01T05:53:44.985Z,73.49
2022-12-01T05:56:11.444Z,73.51
2022-12-01T05:58:44.051Z,73.52
2022-12-01T06:01:10.879Z,73.45
2022-12-01T06:03:37.555Z,74.12
2022-12-01T06:06:07.332Z,74.44
2022-12-01T06:08:36.724Z,74.39
2022-12-01T06:11:03.437Z,74.50
2022-12-01T06:13:30.158Z,74.24
2022-12-01T06:16:03.046Z,73.71
2022-12-01T06:18:37.476Z,73.39
2022-12-01T06:21:05.896Z,73.23
2022-12-01T06:23:32.619Z,73.02
2022-12-01T06:26:00.557Z,73.72
2022-12-01T06:28:30.072Z,73.39
2022-12-01T06:31:01.279Z,73.32
2022-12-01T06:33:29.672Z,73.99
2022-12-01T06:36:00.514Z,73.58
2022-12-01T06:38:33.056Z,74.27
2022-12-01T06:41:00.364Z,73.88
2022-12-01T06:43:27.199Z,74.11
2022-12-01T06:45:59.461Z,74.81
2022-12-01T06:48:28.058Z,74.06
2022-12-01T06:51:00.396Z,73.36
2022-12-01T06:53:28.625Z,73.70
2022-12-01T06:56:03.828Z,73.31
2022-12-01T06:58:32.857Z,73.27
2022-12-01T07:01:02.891Z,72.85
2022-12-01T07:03:32.593Z,72.83
2022-12-01T07:06:01.174Z,72.56
2022-12-01T07:08:32.537Z,72.84
2022-12-01T07:11:01.136Z,73.06
2022-12-01T07:13:33.616Z,72.67
2022-12-01T07:16:07.210Z,72.49
2022-12-01T07:18:40.193Z,72.00
2022-12-01T07:21:11.947Z,72.07
2022-12-01T07:23:38.865Z,72.09
2022-12-01T07:26:10.305Z,72.72
2022-12-01T07:28:36.982Z,72.51
2022-12-01T07:31:08.485Z,72.99
2022-12-01T07:33:40.918Z,72.48
2022-12-01T07:36:11.924Z,72.21
2022-12-01T07:38:39.226Z,71.71
2022-12-01T07:41:08.095Z,71.52
2022-12-01T07:43:35.590Z,71.39
2022-12-01T07:46:06.473Z,71.18
2022-12-01T07:48:33.347Z,71.18
2022-12-01T07:50:59.964Z,71.33
2022-12-01T07:53:29.894Z,71.60
2022-12-01T07:55:56.719Z,71.12
2022-12-01T07:58:26.946Z,71.49
2022-12-01T08:01:21.381Z,70.80
2022-12-01T08:03:55.055Z,69.98
2022-12-01T08:06:22.771Z,69.78
2022-12-01T08:09:19.854Z,70.17
2022-12-01T08:12:37.051Z,69.73
2022-12-01T08:14:37.762Z,69.60
2022-12-01T08:17:16.663Z,69.91
2022-12-01T08:19:52.065Z,69.55
2022-12-01T08:22:27.000Z,69.98
2022-12-01T08:24:53.885Z,69.76
2022-12-01T08:27:20.793Z,70.31
2022-12-01T08:29:47.856Z,70.25
2022-12-01T08:32:16.151Z,70.84
2022-12-01T08:34:43.292Z,71.01
2022-12-01T08:37:16.365Z,70.99
2022-12-01T08:39:43.355Z,71.10
2022-12-01T08:42:10.370Z,70.90
2022-12-01T08:44:36.922Z,70.63
2022-12-01T08:47:03.495Z,70.54
2022-12-01T08:49:30.306Z,71.26
2022-12-01T08:51:56.916Z,71.08
2022-12-01T08:54:23.569Z,70.75
2022-12-01T08:56:50.354Z,70.24
2022-12-01T08:59:17.612Z,70.09
2022-12-01T09:01:53.609Z,69.67
2022-12-01T09:04:26.463Z,70.16
2022-12-01T09:07:02.516Z,69.89
2022-12-01T09:12:35.126Z,69.14
2022-12-01T09:15:20.638Z,69.28
2022-12-01T09:18:08.452Z,69.18
2022-12-01T09:20:35.391Z,69.94
2022-12-01T09:23:04.404Z,70.68
2022-12-01T09:25:31.085Z,70.91
2022-12-01T09:28:13.118Z,70.78
2022-12-01T09:30:42.105Z,70.67
2022-12-01T09:33:09.160Z,70.04
2022-12-01T09:35:36.455Z,69.78
2022-12-01T09:38:12.117Z,69.62
2022-12-01T09:40:52.628Z,69.71
2022-12-01T09:43:40.800Z,69.57
2022-12-01T09:46:17.372Z,69.39
2022-12-01T09:48:56.377Z,69.43
2022-12-01T09:51:29.048Z,69.12
2022-12-01T09:54:03.887Z,69.57
2022-12-01T09:56:38.453Z,68.33
2022-12-01T09:59:12.722Z,68.81
2022-12-01T10:02:05.115Z,69.72
2022-12-01T10:04:55.296Z,69.31
2022-12-01T10:07:47.841Z,69.26
2022-12-01T10:10:20.625Z,69.38
2022-12-01T10:12:47.447Z,69.97
2022-12-01T10:15:32.507Z,70.02
2022-12-01T10:18:10.451Z,69.20
2022-12-01T10:20:48.400Z,69.80
2022-12-01T10:23:14.947Z,70.00
2022-12-01T10:26:10.289Z,69.23
2022-12-01T10:29:10.554Z,69.04
2022-12-01T10:31:58.439Z,70.10
2022-12-01T10:34:32.268Z,69.93
2022-12-01T10:36:59.442Z,69.45
2022-12-01T10:39:29.482Z,69.19
2022-12-01T10:42:29.300Z,68.80
2022-12-01T10:44:59.119Z,69.14
2022-12-01T10:47:26.155Z,69.69
2022-12-01T10:49:53.352Z,69.75
2022-12-01T10:52:37.285Z,69.08
2022-12-01T10:55:23.456Z,69.03
2022-12-01T10:57:51.065Z,69.23
2022-12-01T11:00:57.454Z,69.44
2022-12-01T11:03:21.944Z,69.51
2022-12-01T11:05:57.619Z,69.41
2022-12-01T11:08:46.682Z,69.03
2022-12-01T11:11:45.429Z,68.65
2022-12-01T11:14:21.841Z,68.90
2022-12-01T11:16:51.947Z,68.57
2022-12-01T11:19:26.803Z,67.88
2022-12-01T11:21:57.870Z,67.93
2022-12-01T11:24:42.168Z,68.30
2022-12-01T11:27:18.601Z,67.74
2022-12-01T11:29:49.692Z,68.54
2022-12-01T11:32:18.438Z,68.07
2022-12-01T11:34:52.190Z,67.91
2022-12-01T11:37:22.159Z,67.80
2022-12-01T11:39:51.295Z,68.52
2022-12-01T11:42:31.174Z,68.65
2022-12-01T11:45:27.743Z,68.57
2022-12-01T11:48:20.558Z,69.44
2022-12-01T11:51:05.271Z,69.19
2022-12-01T11:53:37.973Z,68.47
2022-12-01T11:56:19.474Z,68.26
2022-12-01T11:58:48.315Z,68.71
2022-12-01T12:01:51.943Z,68.08
2022-12-01T12:04:28.058Z,67.70
2022-12-01T12:07:19.976Z,67.83
2022-12-01T12:09:52.688Z,67.57
2022-12-01T12:12:48.614Z,67.35
2022-12-01T12:15:33.488Z,67.00
2022-12-01T12:18:26.760Z,66.93
2022-12-01T12:21:03.016Z,66.78
2022-12-01T12:23:41.415Z,66.30
2022-12-01T12:26:24.934Z,67.42
2022-12-01T12:29:13.955Z,67.32
2022-12-01T12:32:01.755Z,67.09
2022-12-01T12:34:52.499Z,66.94
2022-12-01T12:37:30.557Z,67.16
2022-12-01T12:40:22.603Z,66.76
2022-12-01T12:42:54.979Z,67.52
2022-12-01T12:45:29.126Z,67.42
2022-12-01T12:47:58.908Z,67.10
2022-12-01T12:50:44.869Z,67.12
2022-12-01T12:53:19.944Z,67.39
2022-12-01T12:55:52.897Z,67.09
2022-12-01T12:58:24.277Z,67.10
2022-12-01T13:00:59.942Z,66.82
2022-12-01T13:03:34.726Z,66.67
2022-12-01T13:06:25.695Z,67.02
2022-12-01T13:09:28.702Z,67.91
2022-12-01T13:12:15.996Z,67.56
2022-12-01T13:14:48.674Z,66.36
2022-12-01T13:17:47.928Z,66.83
2022-12-01T13:20:20.901Z,66.27
2022-12-01T13:22:49.334Z,66.50
2022-12-01T13:25:22.207Z,66.88
2022-12-01T13:27:50.401Z,66.61
2022-12-01T13:30:22.931Z,67.97
2022-12-01T13:32:57.518Z,67.71
2022-12-01T13:35:36.555Z,66.96
2022-12-01T13:38:30.457Z,67.27
2022-12-01T13:41:13.806Z,66.94
2022-12-01T13:43:57.056Z,66.81
2022-12-01T13:46:46.937Z,67.08
2022-12-01T13:49:34.150Z,66.99
2022-12-01T13:52:17.893Z,66.66
2022-12-01T13:55:13.929Z,66.37
2022-12-01T13:57:45.200Z,66.53
2022-12-01T14:00:47.129Z,66.88
2022-12-01T14:03:16.819Z,66.50
2022-12-01T14:05:59.394Z,66.13
2022-12-01T14:08:48.977Z,66.64
2022-12-01T14:11:21.222Z,66.64
2022-12-01T14:13:58.686Z,66.50
2022-12-01T14:16:25.959Z,65.99
2022-12-01T14:18:56.233Z,66.65
2022-12-01T14:21:44.007Z,65.96
2022-12-01T14:24:22.280Z,65.73
2022-12-01T14:26:49.495Z,65.62
2022-12-01T14:29:31.835Z,65.48
2022-12-01T14:32:05.276Z,66.13
2022-12-01T14:34:34.989Z,66.43
2022-12-01T14:37:20.201Z,66.12
2022-12-01T14:39:56.418Z,65.28
2022-12-01T14:42:52.669Z,65.75
2022-12-01T14:45:24.403Z,66.54
2022-12-01T14:48:02.521Z,66.11
2022-12-01T14:50:43.530Z,65.42
2022-12-01T14:53:22.641Z,65.16
2022-12-01T14:56:07.869Z,64.91
2022-12-01T14:58:34.512Z,65.37
2022-12-01T15:01:11.326Z,65.69
2022-12-01T15:03:43.051Z,65.95
2022-12-01T15:06:16.676Z,65.83
2022-12-01T15:08:53.341Z,65.50
2022-12-01T15:11:30.295Z,65.62
2022-12-01T15:13:57.946Z,65.39
2022-12-01T15:16:28.963Z,65.62
2022-12-01T15:18:56.284Z,66.20
2022-12-01T15:21:24.279Z,65.67
2022-12-01T15:24:01.129Z,65.73
2022-12-01T15:26:33.734Z,65.87
2022-12-01T15:29:28.486Z,66.24
2022-12-01T15:32:00.189Z,65.79
2022-12-01T15:34:39.861Z,65.94
2022-12-01T15:37:11.821Z,66.04
2022-12-01T15:39:46.965Z,65.66
2022-12-01T15:42:34.826Z,66.02
2022-12-01T15:45:19.866Z,65.78
2022-12-01T15:47:51.880Z,66.28
2022-12-01T15:50:44.439Z,66.16
2022-12-01T15:53:26.585Z,66.58
2022-12-01T15:55:59.042Z,65.74
2022-12-01T15:58:31.537Z,65.63
2022-12-01T16:01:04.621Z,65.96
2022-12-01T16:03:33.816Z,66.25
2022-12-01T16:06:00.779Z,66.99
2022-12-01T16:08:28.260Z,67.01
2022-12-01T16:11:15.132Z,67.31
2022-12-01T16:13:49.485Z,67.40
2022-12-01T16:16:28.819Z,67.78
2022-12-01T16:18:58.178Z,67.86
2022-12-01T16:21:27.064Z,68.92
2022-12-01T16:24:03.038Z,69.27
2022-12-01T16:26:30.993Z,69.99
2022-12-01T16:28:58.374Z,69.75
2022-12-01T16:31:26.403Z,70.56
2022-12-01T16:34:13.974Z,70.83
2022-12-01T16:36:45.218Z,70.98
2022-12-01T16:39:14.071Z,71.52
2022-12-01T16:41:44.534Z,71.54
2022-12-01T16:44:28.091Z,71.95
2022-12-01T16:46:55.394Z,71.97
2022-12-01T16:49:22.549Z,72.77
2022-12-01T16:51:55.928Z,72.39
2022-12-01T16:54:24.435Z,72.67
2022-12-01T16:56:51.450Z,72.80
2022-12-01T16:59:17.987Z,73.20
2022-12-01T17:01:44.558Z,72.67
2022-12-01T17:04:11.290Z,73.46
2022-12-01T17:06:38.445Z,73.41
2022-12-01T17:09:06.109Z,73.76
2022-12-01T17:11:33.191Z,74.41
2022-12-01T17:13:59.840Z,74.41
2022-12-01T17:16:26.338Z,74.79
2022-12-01T17:18:53.041Z,74.82
2022-12-01T17:21:19.538Z,74.85
2022-12-01T17:23:46.126Z,75.22
2022-12-01T17:26:15.678Z,75.34
2022-12-01T17:28:42.240Z,75.85
2022-12-01T17:31:09.467Z,75.88
2022-12-01T17:33:36.750Z,75.66
2022-12-01T17:36:09.957Z,75.83
2022-12-01T17:38:38.165Z,75.46
2022-12-01T17:41:09.987Z,75.56
2022-12-01T17:43:38.151Z,76.23
2022-12-01T17:46:06.968Z,75.74
2022-12-01T17:48:41.258Z,76.24
2022-12-01T17:51:09.105Z,76.06
2022-12-01T17:53:36.929Z,75.72
2022-12-01T17:56:08.041Z,76.08
2022-12-01T17:58:35.001Z,75.61
2022-12-01T18:01:01.450Z,75.46
2022-12-01T18:03:27.991Z,75.92
2022-12-01T18:05:58.997Z,76.08
2022-12-01T18:08:27.117Z,76.04
2022-12-01T18:10:54.431Z,76.11
2022-12-01T18:13:21.981Z,75.91
2022-12-01T18:15:49.029Z,75.38
2022-12-01T18:18:15.673Z,75.47
2022-12-01T18:20:43.371Z,75.99
2022-12-01T18:23:11.523Z,75.96
2022-12-01T18:25:39.059Z,75.90
2022-12-01T18:28:06.413Z,75.89
2022-12-01T18:30:34.049Z,76.13
2022-12-01T18:33:01.436Z,76.36
2022-12-01T18:35:31.752Z,76.31
2022-12-01T18:37:58.796Z,76.15
2022-12-01T18:40:25.273Z,75.91
2022-12-01T18:42:51.905Z,76.00
2022-12-01T18:45:21.280Z,75.84
2022-12-01T18:47:48.218Z,76.11
2022-12-01T18:50:14.900Z,76.40
2022-12-01T18:52:41.365Z,76.43
2022-12-01T18:55:08.182Z,75.79
2022-12-01T18:57:34.845Z,75.33
2022-12-01T19:00:01.763Z,75.74
2022-12-01T19:02:28.291Z,75.38
2022-12-01T19:04:54.745Z,75.36
2022-12-01T19:07:25.210Z,75.28
2022-12-01T19:09:55.911Z,75.16
2022-12-01T19:12:22.366Z,75.27
2022-12-01T19:14:49.092Z,75.43
2022-12-01T19:17:15.751Z,75.19
2022-12-01T19:19:42.163Z,74.88
2022-12-01T19:22:08.655Z,75.45
2022-12-01T19:24:35.354Z,75.07
2022-12-01T19:27:01.786Z,75.18
2022-12-01T19:29:28.429Z,74.81
2022-12-01T19:31:55.448Z,75.22
2022-12-01T19:34:22.107Z,75.83
2022-12-01T19:36:49.844Z,75.41
2022-12-01T19:39:16.280Z,75.40
2022-12-01T19:41:42.915Z,75.32
2022-12-01T19:44:10.242Z,75.10
2022-12-01T19:46:36.730Z,75.21
2022-12-01T19:49:03.865Z,75.12
2022-12-01T19:51:34.939Z,74.88
2022-12-01T19:54:01.835Z,74.96
2022-12-01T19:56:28.989Z,75.03
2022-12-01T19:58:57.108Z,75.12
2022-12-01T20:01:24.147Z,75.67
2022-12-01T20:03:52.525Z,75.54
2022-12-01T20:06:25.527Z,74.62
2022-12-01T20:08:52.812Z,75.15
2022-12-01T20:11:19.321Z,74.68
2022-12-01T20:13:46.529Z,74.86
2022-12-01T20:16:20.992Z,75.14
2022-12-01T20:18:48.420Z,74.87
2022-12-01T20:21:23.739Z,74.95
2022-12-01T20:24:01.611Z,74.88
2022-12-01T20:26:32.161Z,75.21
2022-12-01T20:29:01.115Z,75.36
2022-12-01T20:31:30.023Z,75.40
2022-12-01T20:33:58.113Z,75.31
2022-12-01T20:36:25.264Z,75.61
2022-12-01T20:38:51.769Z,75.71
2022-12-01T20:41:18.247Z,75.90
2022-12-01T20:43:45.051Z,75.99
2022-12-01T20:46:13.232Z,76.12
2022-12-01T20:48:40.486Z,75.23
2022-12-01T20:51:08.145Z,75.17
2022-12-01T20:53:35.660Z,75.27
2022-12-01T20:56:04.322Z,75.22
2022-12-01T20:58:37.056Z,75.34
2022-12-01T21:01:08.891Z,75.21
2022-12-01T21:03:35.583Z,74.92
2022-12-01T21:06:02.871Z,74.86
2022-12-01T21:08:29.306Z,75.17
2022-12-01T21:10:55.733Z,75.00
2022-12-01T21:13:39.572Z,74.56
2022-12-01T21:16:28.985Z,74.30
2022-12-01T21:19:01.044Z,74.69
2022-12-01T21:21:29.895Z,74.63
2022-12-01T21:24:08.423Z,74.49
2022-12-01T21:26:36.545Z,74.56
2022-12-01T21:29:15.523Z,74.92
2022-12-01T21:31:42.003Z,74.67
2022-12-01T21:34:17.800Z,74.50
2022-12-01T21:36:45.502Z,74.98
2022-12-01T21:39:15.694Z,75.23
2022-12-01T21:41:42.145Z,74.88
2022-12-01T21:44:17.825Z,75.06
2022-12-01T21:46:45.374Z,74.33
2022-12-01T21:49:21.280Z,74.67
2022-12-01T21:51:50.374Z,74.28
2022-12-01T21:54:20.277Z,74.34
2022-12-01T21:56:48.587Z,74.46
2022-12-01T21:59:24.954Z,74.59
2022-12-01T22:01:56.291Z,74.89
2022-12-01T22:04:29.966Z,74.71
2022-12-01T22:06:57.961Z,74.53
2022-12-01T22:09:33.992Z,74.16
2022-12-01T22:12:11.731Z,74.58
2022-12-01T22:14:39.131Z,74.29
2022-12-01T22:17:05.501Z,74.24
2022-12-01T22:19:34.484Z,74.71
2022-12-01T22:22:12.957Z,73.98
2022-12-01T22:24:39.911Z,74.18
2022-12-01T22:27:34.093Z,74.30
2022-12-01T22:30:06.427Z,73.72
2022-12-01T22:33:03.644Z,73.83
2022-12-01T22:35:43.979Z,73.68
2022-12-01T22:38:29.106Z,73.68
2022-12-01T22:41:05.487Z,73.57
2022-12-01T22:43:44.675Z,73.47
2022-12-01T22:46:30.982Z,73.27
2022-12-01T22:49:06.614Z,73.29
2022-12-01T22:51:47.899Z,73.31
2022-12-01T22:54:14.265Z,73.16
2022-12-01T22:56:44.942Z,73.53
2022-12-01T22:59:14.474Z,72.86
2022-12-01T23:01:54.965Z,73.19
2022-12-01T23:04:29.205Z,72.97
2022-12-01T23:07:00.574Z,73.02
2022-12-01T23:09:32.165Z,73.07
2022-12-01T23:12:04.537Z,73.13
2022-12-01T23:14:33.351Z,72.93
2022-12-01T23:17:06.851Z,72.99
2022-12-01T23:19:34.539Z,72.92
2022-12-01T23:22:01.332Z,72.75
2022-12-01T23:24:32.408Z,73.12
2022-12-01T23:27:00.383Z,72.64
2022-12-01T23:29:26.819Z,72.87
2022-12-01T23:31:53.301Z,72.59
2022-12-01T23:34:20.052Z,72.44
2022-12-01T23:36:49.120Z,72.40
2022-12-01T23:39:17.716Z,72.49
2022-12-01T23:41:51.200Z,72.48
2022-12-01T23:44:24.798Z,71.88
2022-12-01T23:46:55.468Z,72.20
2022-12-01T23:49:31.253Z,72.29
2022-12-01T23:52:00.607Z,72.35
2022-12-01T23:54:31.527Z,72.09
2022-12-01T23:57:01.629Z,72.37
2022-12-01T23:59:30.015Z,71.94
